Elko Regional Airport
KEKO : rendu visible

Aérodrome :











RETROUVEZ-NOUS SUR...

 
LOGIN :

S'inscrire | Disclaimer

   EN    FR    IT 

 









Légende :    VFR   VFR Marginal   IFR   IFR Intensif   IFR Très Intensif
Visi : 
Plafond : 
>= 8 km
>= 3000ft
5 à 8 km
1000 à 3000 ft
1500m à 5 km
500 à 1000 ft
800 à 1500m
200 à 500 ft
< 800m
< 200 ft
Symboles :   Orages  Brouillard  Fortes neiges  Fortes précipitations  Vent > 20 kt






- Altitude de l'aérodrome : 5140 ft
- Code IATA : EKO


KEKO - Elko Regional

DERNIER METAR :
  • 261456Z AUTO 09003KT 10SM OVC075 01/M02 A3006 RMK AO2 SLP192 60000 T00061017 55005

METARs EXPIRÉS :
  • 261356Z AUTO 00000KT 10SM BKN070 BKN090 01/M02 A3005 RMK AO2 RAB05E14 SLP186 P0000 T00061017
  • 261256Z AUTO 00000KT 10SM BKN070 OVC090 00/M02 A3007 RMK AO2 SLP187 T00001022

TAF KEKO
Valide du 26 à 12h jusqu'au 27 à 12h UTC


261130Z 2612/2712 08003KT P6SM BKN100
FM261700 VRB03KT P6SM VCSH OVC035
FM261900 21005KT 3SM -RA SCT012 OVC020
FM270200 VRB03KT P6SM VCSH SCT025 BKN040



MET'MAP, la Météo Aéronautique d'un coup d'oeil ! - Copyright ORBIFLY Décembre 2007 - Disclaimer

ORBIFLY MET'MAP TEAM :

Programmation & Développement : Alexandra Zaïnal
Sur une idée originale de : Baudouin d'Aumeries
Assistance à la programmation : Marc-Olivier Méhu
Soutien technique & logistique : Manuel Goepfert

Contact : metmap@orbifly.com




SOURCES & CREDITS :

   NOAA       Earth
Advisory